PWSweather.com
Personal Weather Stations
Station Observations
TARRYHILL
Tarrytown, NY 10591

Tarrytown, NY 10591

Lat: 41.05185, Lon: -73.85296

Elevation: 341

Station Type: Davis Vantage Vue

www.tarrytownnyweather.com

High Low Average
Temperature 54.3°F12.4°F 41.1°F5.1°F 49.4°F9.7°F
Dew Point 45.8°F7.7°F 29.6°F-1.3°F 36.7°F2.6°F
Winds 7.2 mph NNE11.6 mph NNE Calm Calm 2.6 mph 4.2 mph
Wind Gusts 16.0 mph25.7 mph -- 5.8 mph9.3 mph
Humidity 74% 46% 62%
Pressure 30.05 in1017.60 in 29.71 in1006.10 in -
Precipitation 0.00 in0.00 in - -
Hour Temp Dew Point Humidity Winds Wind Gusts Pressure Precip Precip Rate Daily Precip Total
12:00 AM 54.3°F12.4°C 45.8°F7.7°C 73% 1.1 mph WSW1.8 kmh WSW 2.0 mph3.2 kmh 29.71 in1006.1 mb 0.00 in0.0 mm 0.00 in/hr0.0 mm/hr 0.00 in0.0 mm
12:10 AM 54.1°F12.3°C 45.6°F7.6°C 73% 1.1 mph E1.8 kmh E 2.0 mph3.2 kmh 29.71 in1006.1 mb 0.00 in0.0 mm 0.00 in/hr0.0 mm/hr 0.00 in0.0 mm
12:20 AM 54.1°F12.3°C 45.6°F7.6°C 73% 2.7 mph S4.3 kmh S 5.0 mph8.0 kmh 29.71 in1006.1 mb 0.00 in0.0 mm 0.00 in/hr0.0 mm/hr 0.00 in0.0 mm
12:30 AM 54.1°F12.3°C 45.7°F7.6°C 73% 0.4 mph E0.6 kmh E 2.0 mph3.2 kmh 29.72 in1006.4 mb 0.00 in0.0 mm 0.00 in/hr0.0 mm/hr 0.00 in0.0 mm
12:40 AM 54.1°F12.3°C 45.7°F7.6°C 73% 0.5 mph ESE0.8 kmh ESE 2.0 mph3.2 kmh 29.72 in1006.4 mb 0.00 in0.0 mm 0.00 in/hr0.0 mm/hr 0.00 in0.0 mm
12:50 AM 54.1°F12.3°C 45.6°F7.6°C 73% 0.2 mph SE0.3 kmh SE 3.0 mph4.8 kmh 29.71 in1006.1 mb 0.00 in0.0 mm 0.00 in/hr0.0 mm/hr 0.00 in0.0 mm
01:00 AM 54.0°F12.2°C 45.6°F7.6°C 73% 1.7 mph SW2.7 kmh SW 3.0 mph4.8 kmh 29.71 in1006.1 mb 0.00 in0.0 mm 0.00 in/hr0.0 mm/hr 0.00 in0.0 mm
01:10 AM 54.0°F12.2°C 45.5°F7.5°C 73% 1.1 mph ESE1.8 kmh ESE 2.0 mph3.2 kmh 29.72 in1006.4 mb 0.00 in0.0 mm 0.00 in/hr0.0 mm/hr 0.00 in0.0 mm
01:20 AM 53.9°F12.2°C 45.1°F7.3°C 72% 0.1 mph W0.2 kmh W 1.0 mph1.6 kmh 29.71 in1006.1 mb 0.00 in0.0 mm 0.00 in/hr0.0 mm/hr 0.00 in0.0 mm
01:30 AM 53.9°F12.2°C 45.1°F7.3°C 72% 2.1 mph W3.4 kmh W 6.0 mph9.7 kmh 29.72 in1006.4 mb 0.00 in0.0 mm 0.00 in/hr0.0 mm/hr 0.00 in0.0 mm
01:40 AM 53.8°F12.1°C 45.3°F7.4°C 73% 1.5 mph NNW2.4 kmh NNW 3.0 mph4.8 kmh 29.72 in1006.4 mb 0.00 in0.0 mm 0.00 in/hr0.0 mm/hr 0.00 in0.0 mm
01:50 AM 53.6°F12.0°C 44.8°F7.1°C 72% 3.8 mph WNW6.1 kmh WNW 7.0 mph11.3 kmh 29.71 in1006.1 mb 0.00 in0.0 mm 0.00 in/hr0.0 mm/hr 0.00 in0.0 mm
02:00 AM 53.5°F11.9°C 45.1°F7.3°C 73% 1.3 mph N2.1 kmh N 2.0 mph3.2 kmh 29.71 in1006.1 mb 0.00 in0.0 mm 0.00 in/hr0.0 mm/hr 0.00 in0.0 mm
02:10 AM 53.4°F11.9°C 44.6°F7.0°C 72% 1.8 mph E2.9 kmh E 5.0 mph8.0 kmh 29.71 in1006.1 mb 0.00 in0.0 mm 0.00 in/hr0.0 mm/hr 0.00 in0.0 mm
02:20 AM 53.5°F11.9°C 44.7°F7.1°C 72% 3.8 mph ESE6.1 kmh ESE 5.0 mph8.0 kmh 29.72 in1006.4 mb 0.00 in0.0 mm 0.00 in/hr0.0 mm/hr 0.00 in0.0 mm
02:30 AM 53.5°F11.9°C 44.3°F6.8°C 71% 1.5 mph NE2.4 kmh NE 4.0 mph6.4 kmh 29.73 in1006.8 mb 0.00 in0.0 mm 0.00 in/hr0.0 mm/hr 0.00 in0.0 mm
02:40 AM 53.3°F11.8°C 44.2°F6.8°C 71% 2.7 mph NW4.3 kmh NW 4.0 mph6.4 kmh 29.72 in1006.4 mb 0.00 in0.0 mm 0.00 in/hr0.0 mm/hr 0.00 in0.0 mm
02:50 AM 53.2°F11.8°C 44.4°F6.9°C 72% 2.1 mph NNW3.4 kmh NNW 3.0 mph4.8 kmh 29.73 in1006.8 mb 0.00 in0.0 mm 0.00 in/hr0.0 mm/hr 0.00 in0.0 mm
03:00 AM 53.0°F11.7°C 44.2°F6.8°C 72% 4.7 mph NNE7.6 kmh NNE 14.0 mph22.5 kmh 29.72 in1006.4 mb 0.00 in0.0 mm 0.00 in/hr0.0 mm/hr 0.00 in0.0 mm
03:10 AM 52.8°F11.6°C 44.4°F6.9°C 73% 2.5 mph NW4.0 kmh NW 4.0 mph6.4 kmh 29.72 in1006.4 mb 0.00 in0.0 mm 0.00 in/hr0.0 mm/hr 0.00 in0.0 mm
03:20 AM 52.7°F11.5°C 44.3°F6.8°C 73% 1.8 mph WSW2.9 kmh WSW 3.0 mph4.8 kmh 29.73 in1006.8 mb 0.00 in0.0 mm 0.00 in/hr0.0 mm/hr 0.00 in0.0 mm
03:30 AM 52.6°F11.4°C 44.2°F6.8°C 73% 3.5 mph SE5.6 kmh SE 5.0 mph8.0 kmh 29.73 in1006.8 mb 0.00 in0.0 mm 0.00 in/hr0.0 mm/hr 0.00 in0.0 mm
03:40 AM 52.5°F11.4°C 44.5°F6.9°C 74% 1.1 mph WNW1.8 kmh WNW 1.0 mph1.6 kmh 29.73 in1006.8 mb 0.00 in0.0 mm 0.00 in/hr0.0 mm/hr 0.00 in0.0 mm
03:50 AM 52.4°F11.3°C 44.0°F6.7°C 73% 2.4 mph W3.9 kmh W 10.0 mph16.1 kmh 29.73 in1006.8 mb 0.00 in0.0 mm 0.00 in/hr0.0 mm/hr 0.00 in0.0 mm
04:00 AM 52.4°F11.3°C 44.4°F6.9°C 74% 0.7 mph N1.1 kmh N 3.0 mph4.8 kmh 29.73 in1006.8 mb 0.00 in0.0 mm 0.00 in/hr0.0 mm/hr 0.00 in0.0 mm
04:10 AM 52.4°F11.3°C 43.6°F6.4°C 72% 1.9 mph WNW3.1 kmh WNW 5.0 mph8.0 kmh 29.75 in1007.5 mb 0.00 in0.0 mm 0.00 in/hr0.0 mm/hr 0.00 in0.0 mm
04:20 AM 52.3°F11.3°C 43.2°F6.2°C 71% 1.2 mph NNW1.9 kmh NNW 2.0 mph3.2 kmh 29.75 in1007.5 mb 0.00 in0.0 mm 0.00 in/hr0.0 mm/hr 0.00 in0.0 mm
04:30 AM 52.2°F11.2°C 43.1°F6.2°C 71% 2.8 mph W4.5 kmh W 4.0 mph6.4 kmh 29.75 in1007.5 mb 0.00 in0.0 mm 0.00 in/hr0.0 mm/hr 0.00 in0.0 mm
04:40 AM 52.1°F11.2°C 42.6°F5.9°C 70% 3.1 mph NE5.0 kmh NE 5.0 mph8.0 kmh 29.75 in1007.5 mb 0.00 in0.0 mm 0.00 in/hr0.0 mm/hr 0.00 in0.0 mm
04:50 AM 52.0°F11.1°C 42.1°F5.6°C 69% 2.1 mph ENE3.4 kmh ENE 5.0 mph8.0 kmh 29.75 in1007.5 mb 0.00 in0.0 mm 0.00 in/hr0.0 mm/hr 0.00 in0.0 mm
05:00 AM 51.8°F11.0°C 41.9°F5.5°C 69% 1.5 mph ENE2.4 kmh ENE 3.0 mph4.8 kmh 29.75 in1007.5 mb 0.00 in0.0 mm 0.00 in/hr0.0 mm/hr 0.00 in0.0 mm
05:10 AM 51.7°F10.9°C 41.9°F5.5°C 69% 2.5 mph E4.0 kmh E 5.0 mph8.0 kmh 29.76 in1007.8 mb 0.00 in0.0 mm 0.00 in/hr0.0 mm/hr 0.00 in0.0 mm
05:20 AM 51.4°F10.8°C 41.6°F5.3°C 69% 2.6 mph NE4.2 kmh NE 6.0 mph9.7 kmh 29.76 in1007.8 mb 0.00 in0.0 mm 0.00 in/hr0.0 mm/hr 0.00 in0.0 mm
05:30 AM 51.3°F10.7°C 41.1°F5.1°C 68% 2.2 mph ENE3.5 kmh ENE 5.0 mph8.0 kmh 29.77 in1008.1 mb 0.00 in0.0 mm 0.00 in/hr0.0 mm/hr 0.00 in0.0 mm
05:40 AM 51.0°F10.6°C 40.8°F4.9°C 68% 3.3 mph NW5.3 kmh NW 5.0 mph8.0 kmh 29.78 in1008.5 mb 0.00 in0.0 mm 0.00 in/hr0.0 mm/hr 0.00 in0.0 mm
05:50 AM 50.9°F10.5°C 40.7°F4.8°C 68% 2.4 mph ENE3.9 kmh ENE 3.0 mph4.8 kmh 29.79 in1008.8 mb 0.00 in0.0 mm 0.00 in/hr0.0 mm/hr 0.00 in0.0 mm
06:00 AM 50.8°F10.4°C 41.4°F5.2°C 70% 4.5 mph NNW7.2 kmh NNW 7.0 mph11.3 kmh 29.79 in1008.8 mb 0.00 in0.0 mm 0.00 in/hr0.0 mm/hr 0.00 in0.0 mm
06:10 AM 50.6°F10.3°C 41.2°F5.1°C 70% 2.4 mph NE3.9 kmh NE 5.0 mph8.0 kmh 29.79 in1008.8 mb 0.00 in0.0 mm 0.00 in/hr0.0 mm/hr 0.00 in0.0 mm
06:20 AM 50.5°F10.3°C 40.7°F4.8°C 69% 4.0 mph NNE6.4 kmh NNE 8.0 mph12.9 kmh 29.80 in1009.1 mb 0.00 in0.0 mm 0.00 in/hr0.0 mm/hr 0.00 in0.0 mm
06:30 AM 50.2°F10.1°C 40.8°F4.9°C 70% 2.2 mph NW3.5 kmh NW 4.0 mph6.4 kmh 29.80 in1009.1 mb 0.00 in0.0 mm 0.00 in/hr0.0 mm/hr 0.00 in0.0 mm
06:40 AM 50.0°F10.0°C 40.2°F4.6°C 69% 2.4 mph NE3.9 kmh NE 5.0 mph8.0 kmh 29.81 in1009.5 mb 0.00 in0.0 mm 0.00 in/hr0.0 mm/hr 0.00 in0.0 mm
06:50 AM 49.8°F9.9°C 40.1°F4.5°C 69% 1.7 mph NW2.7 kmh NW 5.0 mph8.0 kmh 29.81 in1009.5 mb 0.00 in0.0 mm 0.00 in/hr0.0 mm/hr 0.00 in0.0 mm
07:00 AM 49.8°F9.9°C 40.0°F4.4°C 69% 3.2 mph WNW5.1 kmh WNW 10.0 mph16.1 kmh 29.82 in1009.8 mb 0.00 in0.0 mm 0.00 in/hr0.0 mm/hr 0.00 in0.0 mm
07:10 AM 49.6°F9.8°C 39.5°F4.2°C 68% 1.8 mph N2.9 kmh N 5.0 mph8.0 kmh 29.82 in1009.8 mb 0.00 in0.0 mm 0.00 in/hr0.0 mm/hr 0.00 in0.0 mm
07:20 AM 49.5°F9.7°C 39.4°F4.1°C 68% 1.8 mph N2.9 kmh N 3.0 mph4.8 kmh 29.82 in1009.8 mb 0.00 in0.0 mm 0.00 in/hr0.0 mm/hr 0.00 in0.0 mm
07:30 AM 49.5°F9.7°C 39.4°F4.1°C 68% 4.5 mph W7.2 kmh W 12.0 mph19.3 kmh 29.83 in1010.2 mb 0.00 in0.0 mm 0.00 in/hr0.0 mm/hr 0.00 in0.0 mm
07:40 AM 49.4°F9.7°C 39.3°F4.1°C 68% 1.3 mph NE2.1 kmh NE 3.0 mph4.8 kmh 29.83 in1010.2 mb 0.00 in0.0 mm 0.00 in/hr0.0 mm/hr 0.00 in0.0 mm
07:50 AM 49.3°F9.6°C 39.6°F4.2°C 69% 4.2 mph WNW6.8 kmh WNW 9.0 mph14.5 kmh 29.83 in1010.2 mb 0.00 in0.0 mm 0.00 in/hr0.0 mm/hr 0.00 in0.0 mm
08:00 AM 49.3°F9.6°C 39.6°F4.2°C 69% 2.2 mph WNW3.5 kmh WNW 4.0 mph6.4 kmh 29.84 in1010.5 mb 0.00 in0.0 mm 0.00 in/hr0.0 mm/hr 0.00 in0.0 mm
08:10 AM 49.3°F9.6°C 39.6°F4.2°C 69% 2.6 mph ENE4.2 kmh ENE 5.0 mph8.0 kmh 29.85 in1010.8 mb 0.00 in0.0 mm 0.00 in/hr0.0 mm/hr 0.00 in0.0 mm
08:20 AM 49.2°F9.6°C 39.5°F4.2°C 69% 2.6 mph NW4.2 kmh NW 6.0 mph9.7 kmh 29.85 in1010.8 mb 0.00 in0.0 mm 0.00 in/hr0.0 mm/hr 0.00 in0.0 mm
08:30 AM 49.4°F9.7°C 39.6°F4.2°C 69% 2.2 mph ESE3.5 kmh ESE 5.0 mph8.0 kmh 29.86 in1011.2 mb 0.00 in0.0 mm 0.00 in/hr0.0 mm/hr 0.00 in0.0 mm
08:40 AM 49.4°F9.7°C 39.7°F4.3°C 69% 2.2 mph N3.5 kmh N 3.0 mph4.8 kmh 29.86 in1011.2 mb 0.00 in0.0 mm 0.00 in/hr0.0 mm/hr 0.00 in0.0 mm
08:50 AM 49.3°F9.6°C 39.2°F4.0°C 68% 1.6 mph N2.6 kmh N 3.0 mph4.8 kmh 29.87 in1011.5 mb 0.00 in0.0 mm 0.00 in/hr0.0 mm/hr 0.00 in0.0 mm
09:00 AM 49.3°F9.6°C 39.6°F4.2°C 69% 2.0 mph NE3.2 kmh NE 5.0 mph8.0 kmh 29.87 in1011.5 mb 0.00 in0.0 mm 0.00 in/hr0.0 mm/hr 0.00 in0.0 mm
09:10 AM 49.4°F9.7°C 38.9°F3.8°C 67% 3.7 mph NW6.0 kmh NW 6.0 mph9.7 kmh 29.87 in1011.5 mb 0.00 in0.0 mm 0.00 in/hr0.0 mm/hr 0.00 in0.0 mm
09:20 AM 49.3°F9.6°C 38.4°F3.6°C 66% 1.2 mph E1.9 kmh E 3.0 mph4.8 kmh 29.87 in1011.5 mb 0.00 in0.0 mm 0.00 in/hr0.0 mm/hr 0.00 in0.0 mm
09:30 AM 49.4°F9.7°C 38.1°F3.4°C 65% 5.2 mph SE8.4 kmh SE 7.0 mph11.3 kmh 29.88 in1011.9 mb 0.00 in0.0 mm 0.00 in/hr0.0 mm/hr 0.00 in0.0 mm
09:40 AM 49.5°F9.7°C 37.4°F3.0°C 63% 4.2 mph SSW6.8 kmh SSW 7.0 mph11.3 kmh 29.88 in1011.9 mb 0.00 in0.0 mm 0.00 in/hr0.0 mm/hr 0.00 in0.0 mm
09:50 AM 49.8°F9.9°C 37.7°F3.2°C 63% 2.0 mph NNW3.2 kmh NNW 11.0 mph17.7 kmh 29.88 in1011.9 mb 0.00 in0.0 mm 0.00 in/hr0.0 mm/hr 0.00 in0.0 mm
10:00 AM 50.0°F10.0°C 37.5°F3.1°C 62% 2.0 mph NE3.2 kmh NE 5.0 mph8.0 kmh 29.88 in1011.9 mb 0.00 in0.0 mm 0.00 in/hr0.0 mm/hr 0.00 in0.0 mm
10:10 AM 50.5°F10.3°C 38.0°F3.3°C 62% 1.4 mph S2.3 kmh S 5.0 mph8.0 kmh 29.87 in1011.5 mb 0.00 in0.0 mm 0.00 in/hr0.0 mm/hr 0.00 in0.0 mm
10:20 AM 50.8°F10.4°C 37.8°F3.2°C 61% 7.1 mph SE11.4 kmh SE 12.0 mph19.3 kmh 29.88 in1011.9 mb 0.00 in0.0 mm 0.00 in/hr0.0 mm/hr 0.00 in0.0 mm
10:30 AM 50.8°F10.4°C 37.0°F2.8°C 59% 3.7 mph WNW6.0 kmh WNW 4.0 mph6.4 kmh 29.88 in1011.9 mb 0.00 in0.0 mm 0.00 in/hr0.0 mm/hr 0.00 in0.0 mm
10:40 AM 50.4°F10.2°C 37.4°F3.0°C 61% 4.5 mph NNW7.2 kmh NNW 8.0 mph12.9 kmh 29.88 in1011.9 mb 0.00 in0.0 mm 0.00 in/hr0.0 mm/hr 0.00 in0.0 mm
10:50 AM 51.1°F10.6°C 38.1°F3.4°C 61% 1.5 mph WSW2.4 kmh WSW 9.0 mph14.5 kmh 29.88 in1011.9 mb 0.00 in0.0 mm 0.00 in/hr0.0 mm/hr 0.00 in0.0 mm
11:00 AM 51.5°F10.8°C 37.2°F2.9°C 58% 6.0 mph NW9.7 kmh NW 8.0 mph12.9 kmh 29.88 in1011.9 mb 0.00 in0.0 mm 0.00 in/hr0.0 mm/hr 0.00 in0.0 mm
11:10 AM 51.5°F10.8°C 37.7°F3.2°C 59% 1.2 mph NW1.9 kmh NW 7.0 mph11.3 kmh 29.89 in1012.2 mb 0.00 in0.0 mm 0.00 in/hr0.0 mm/hr 0.00 in0.0 mm
11:20 AM 52.2°F11.2°C 37.9°F3.3°C 58% 3.3 mph W5.3 kmh W 4.0 mph6.4 kmh 29.89 in1012.2 mb 0.00 in0.0 mm 0.00 in/hr0.0 mm/hr 0.00 in0.0 mm
11:30 AM 51.4°F10.8°C 37.5°F3.1°C 59% 3.2 mph NNW5.1 kmh NNW 7.0 mph11.3 kmh 29.88 in1011.9 mb 0.00 in0.0 mm 0.00 in/hr0.0 mm/hr 0.00 in0.0 mm
11:40 AM 51.8°F11.0°C 37.5°F3.1°C 58% 2.0 mph SW3.2 kmh SW 10.0 mph16.1 kmh 29.88 in1011.9 mb 0.00 in0.0 mm 0.00 in/hr0.0 mm/hr 0.00 in0.0 mm
11:50 AM 52.2°F11.2°C 36.9°F2.7°C 56% 6.4 mph WNW10.3 kmh WNW 16.0 mph25.7 kmh 29.89 in1012.2 mb 0.00 in0.0 mm 0.00 in/hr0.0 mm/hr 0.00 in0.0 mm
12:00 PM 52.6°F11.4°C 36.9°F2.7°C 55% 3.2 mph ESE5.1 kmh ESE 4.0 mph6.4 kmh 29.89 in1012.2 mb 0.00 in0.0 mm 0.00 in/hr0.0 mm/hr 0.00 in0.0 mm
12:10 PM 52.5°F11.4°C 36.3°F2.4°C 54% 1.8 mph WNW2.9 kmh WNW 5.0 mph8.0 kmh 29.89 in1012.2 mb 0.00 in0.0 mm 0.00 in/hr0.0 mm/hr 0.00 in0.0 mm
12:20 PM 52.3°F11.3°C 35.7°F2.1°C 53% 3.5 mph S5.6 kmh S 4.0 mph6.4 kmh 29.89 in1012.2 mb 0.00 in0.0 mm 0.00 in/hr0.0 mm/hr 0.00 in0.0 mm
12:30 PM 51.4°F10.8°C 35.8°F2.1°C 55% 2.1 mph WSW3.4 kmh WSW 3.0 mph4.8 kmh 29.89 in1012.2 mb 0.00 in0.0 mm 0.00 in/hr0.0 mm/hr 0.00 in0.0 mm
12:40 PM 51.2°F10.7°C 36.4°F2.4°C 57% 3.2 mph WSW5.1 kmh WSW 5.0 mph8.0 kmh 29.89 in1012.2 mb 0.00 in0.0 mm 0.00 in/hr0.0 mm/hr 0.00 in0.0 mm
12:50 PM 51.2°F10.7°C 36.0°F2.2°C 56% 3.3 mph ESE5.3 kmh ESE 6.0 mph9.7 kmh 29.88 in1011.9 mb 0.00 in0.0 mm 0.00 in/hr0.0 mm/hr 0.00 in0.0 mm
01:00 PM 51.8°F11.0°C 36.1°F2.3°C 55% 2.7 mph N4.3 kmh N 8.0 mph12.9 kmh 29.88 in1011.9 mb 0.00 in0.0 mm 0.00 in/hr0.0 mm/hr 0.00 in0.0 mm
01:10 PM 52.0°F11.1°C 34.9°F1.6°C 52% 4.1 mph NE6.6 kmh NE 13.0 mph20.9 kmh 29.88 in1011.9 mb 0.00 in0.0 mm 0.00 in/hr0.0 mm/hr 0.00 in0.0 mm
01:20 PM 52.1°F11.2°C 34.5°F1.4°C 51% 5.7 mph W9.2 kmh W 16.0 mph25.7 kmh 29.88 in1011.9 mb 0.00 in0.0 mm 0.00 in/hr0.0 mm/hr 0.00 in0.0 mm
01:30 PM 52.5°F11.4°C 35.8°F2.1°C 53% 4.3 mph SSW6.9 kmh SSW 10.0 mph16.1 kmh 29.88 in1011.9 mb 0.00 in0.0 mm 0.00 in/hr0.0 mm/hr 0.00 in0.0 mm
01:40 PM 52.3°F11.3°C 35.2°F1.8°C 52% 5.1 mph SSE8.2 kmh SSE 8.0 mph12.9 kmh 29.88 in1011.9 mb 0.00 in0.0 mm 0.00 in/hr0.0 mm/hr 0.00 in0.0 mm
01:50 PM 52.5°F11.4°C 34.9°F1.6°C 51% 5.6 mph SSW9.0 kmh SSW 13.0 mph20.9 kmh 29.88 in1011.9 mb 0.00 in0.0 mm 0.00 in/hr0.0 mm/hr 0.00 in0.0 mm
02:00 PM 52.6°F11.4°C 34.5°F1.4°C 50% 6.7 mph NW10.8 kmh NW 15.0 mph24.1 kmh 29.88 in1011.9 mb 0.00 in0.0 mm 0.00 in/hr0.0 mm/hr 0.00 in0.0 mm
02:10 PM 52.5°F11.4°C 34.4°F1.3°C 50% 1.6 mph E2.6 kmh E 3.0 mph4.8 kmh 29.88 in1011.9 mb 0.00 in0.0 mm 0.00 in/hr0.0 mm/hr 0.00 in0.0 mm
02:20 PM 52.0°F11.1°C 33.9°F1.1°C 50% 2.0 mph SW3.2 kmh SW 16.0 mph25.7 kmh 29.89 in1012.2 mb 0.00 in0.0 mm 0.00 in/hr0.0 mm/hr 0.00 in0.0 mm
02:30 PM 51.7°F10.9°C 33.1°F0.6°C 49% 4.3 mph NNW6.9 kmh NNW 8.0 mph12.9 kmh 29.89 in1012.2 mb 0.00 in0.0 mm 0.00 in/hr0.0 mm/hr 0.00 in0.0 mm
02:40 PM 51.2°F10.7°C 32.7°F0.4°C 49% 2.6 mph E4.2 kmh E 3.0 mph4.8 kmh 29.89 in1012.2 mb 0.00 in0.0 mm 0.00 in/hr0.0 mm/hr 0.00 in0.0 mm
02:50 PM 51.3°F10.7°C 32.8°F0.4°C 49% 2.3 mph S3.7 kmh S 7.0 mph11.3 kmh 29.90 in1012.5 mb 0.00 in0.0 mm 0.00 in/hr0.0 mm/hr 0.00 in0.0 mm
03:00 PM 51.2°F10.7°C 31.7°F-0.2°C 47% 5.8 mph E9.3 kmh E 11.0 mph17.7 kmh 29.90 in1012.5 mb 0.00 in0.0 mm 0.00 in/hr0.0 mm/hr 0.00 in0.0 mm
03:10 PM 50.8°F10.4°C 32.3°F0.2°C 49% 1.7 mph N2.7 kmh N 6.0 mph9.7 kmh 29.90 in1012.5 mb 0.00 in0.0 mm 0.00 in/hr0.0 mm/hr 0.00 in0.0 mm
03:20 PM 51.1°F10.6°C 33.0°F0.6°C 50% 3.8 mph NNW6.1 kmh NNW 10.0 mph16.1 kmh 29.91 in1012.9 mb 0.00 in0.0 mm 0.00 in/hr0.0 mm/hr 0.00 in0.0 mm
03:30 PM 50.8°F10.4°C 31.8°F-0.1°C 48% 2.3 mph S3.7 kmh S 16.0 mph25.7 kmh 29.91 in1012.9 mb 0.00 in0.0 mm 0.00 in/hr0.0 mm/hr 0.00 in0.0 mm
03:40 PM 50.3°F10.2°C 31.3°F-0.4°C 48% 2.0 mph NNE3.2 kmh NNE 10.0 mph16.1 kmh 29.92 in1013.2 mb 0.00 in0.0 mm 0.00 in/hr0.0 mm/hr 0.00 in0.0 mm
03:50 PM 50.2°F10.1°C 30.7°F-0.7°C 47% 4.2 mph SW6.8 kmh SW 10.0 mph16.1 kmh 29.92 in1013.2 mb 0.00 in0.0 mm 0.00 in/hr0.0 mm/hr 0.00 in0.0 mm
04:00 PM 50.4°F10.2°C 31.5°F-0.3°C 48% 1.2 mph W1.9 kmh W 3.0 mph4.8 kmh 29.92 in1013.2 mb 0.00 in0.0 mm 0.00 in/hr0.0 mm/hr 0.00 in0.0 mm
04:10 PM 50.4°F10.2°C 30.4°F-0.9°C 46% 4.2 mph WSW6.8 kmh WSW 8.0 mph12.9 kmh 29.93 in1013.5 mb 0.00 in0.0 mm 0.00 in/hr0.0 mm/hr 0.00 in0.0 mm
04:20 PM 50.5°F10.3°C 32.1°F0.1°C 49% 1.6 mph WNW2.6 kmh WNW 5.0 mph8.0 kmh 29.93 in1013.5 mb 0.00 in0.0 mm 0.00 in/hr0.0 mm/hr 0.00 in0.0 mm
04:30 PM 50.4°F10.2°C 31.4°F-0.3°C 48% 3.5 mph N5.6 kmh N 4.0 mph6.4 kmh 29.94 in1013.9 mb 0.00 in0.0 mm 0.00 in/hr0.0 mm/hr 0.00 in0.0 mm
04:40 PM 50.0°F10.0°C 31.1°F-0.5°C 48% 1.8 mph ESE2.9 kmh ESE 4.0 mph6.4 kmh 29.95 in1014.2 mb 0.00 in0.0 mm 0.00 in/hr0.0 mm/hr 0.00 in0.0 mm
04:50 PM 50.1°F10.1°C 31.7°F-0.2°C 49% 1.6 mph N2.6 kmh N 5.0 mph8.0 kmh 29.95 in1014.2 mb 0.00 in0.0 mm 0.00 in/hr0.0 mm/hr 0.00 in0.0 mm
05:00 PM 49.8°F9.9°C 30.4°F-0.9°C 47% 4.9 mph NW7.9 kmh NW 15.0 mph24.1 kmh 29.95 in1014.2 mb 0.00 in0.0 mm 0.00 in/hr0.0 mm/hr 0.00 in0.0 mm
05:10 PM 49.2°F9.6°C 29.8°F-1.2°C 47% 7.2 mph NNE11.6 kmh NNE 12.0 mph19.3 kmh 29.95 in1014.2 mb 0.00 in0.0 mm 0.00 in/hr0.0 mm/hr 0.00 in0.0 mm
05:20 PM 49.1°F9.5°C 30.7°F-0.7°C 49% 4.9 mph N7.9 kmh N 15.0 mph24.1 kmh 29.95 in1014.2 mb 0.00 in0.0 mm 0.00 in/hr0.0 mm/hr 0.00 in0.0 mm
05:30 PM 49.1°F9.5°C 31.2°F-0.4°C 50% 1.3 mph NNE2.1 kmh NNE 3.0 mph4.8 kmh 29.96 in1014.6 mb 0.00 in0.0 mm 0.00 in/hr0.0 mm/hr 0.00 in0.0 mm
05:40 PM 48.9°F9.4°C 31.5°F-0.3°C 51% 3.8 mph WSW6.1 kmh WSW 6.0 mph9.7 kmh 29.96 in1014.6 mb 0.00 in0.0 mm 0.00 in/hr0.0 mm/hr 0.00 in0.0 mm
05:50 PM 48.0°F8.9°C 31.2°F-0.4°C 52% 3.1 mph W5.0 kmh W 5.0 mph8.0 kmh 29.97 in1014.9 mb 0.00 in0.0 mm 0.00 in/hr0.0 mm/hr 0.00 in0.0 mm
06:00 PM 47.2°F8.4°C 30.9°F-0.6°C 53% 3.8 mph WSW6.1 kmh WSW 7.0 mph11.3 kmh 29.97 in1014.9 mb 0.00 in0.0 mm 0.00 in/hr0.0 mm/hr 0.00 in0.0 mm
06:10 PM 46.8°F8.2°C 31.0°F-0.6°C 54% 4.5 mph ESE7.2 kmh ESE 7.0 mph11.3 kmh 29.97 in1014.9 mb 0.00 in0.0 mm 0.00 in/hr0.0 mm/hr 0.00 in0.0 mm
06:20 PM 46.4°F8.0°C 31.1°F-0.5°C 55% 3.7 mph W6.0 kmh W 7.0 mph11.3 kmh 29.97 in1014.9 mb 0.00 in0.0 mm 0.00 in/hr0.0 mm/hr 0.00 in0.0 mm
06:30 PM 46.1°F7.8°C 31.7°F-0.2°C 57% 1.5 mph NW2.4 kmh NW 4.0 mph6.4 kmh 29.98 in1015.2 mb 0.00 in0.0 mm 0.00 in/hr0.0 mm/hr 0.00 in0.0 mm
06:40 PM 45.8°F7.7°C 31.8°F-0.1°C 58% 3.2 mph N5.1 kmh N 10.0 mph16.1 kmh 29.99 in1015.6 mb 0.00 in0.0 mm 0.00 in/hr0.0 mm/hr 0.00 in0.0 mm
06:50 PM 45.5°F7.5°C 32.0°F0.0°C 59% 2.1 mph NE3.4 kmh NE 5.0 mph8.0 kmh 30.00 in1015.9 mb 0.00 in0.0 mm 0.00 in/hr0.0 mm/hr 0.00 in0.0 mm
07:00 PM 45.2°F7.3°C 31.7°F-0.2°C 59% 3.8 mph SE6.1 kmh SE 9.0 mph14.5 kmh 30.00 in1015.9 mb 0.00 in0.0 mm 0.00 in/hr0.0 mm/hr 0.00 in0.0 mm
07:10 PM 45.0°F7.2°C 31.5°F-0.3°C 59% 2.4 mph WSW3.9 kmh WSW 7.0 mph11.3 kmh 30.01 in1016.3 mb 0.00 in0.0 mm 0.00 in/hr0.0 mm/hr 0.00 in0.0 mm
07:20 PM 44.9°F7.2°C 31.8°F-0.1°C 60% 3.2 mph E5.1 kmh E 4.0 mph6.4 kmh 30.01 in1016.3 mb 0.00 in0.0 mm 0.00 in/hr0.0 mm/hr 0.00 in0.0 mm
07:30 PM 44.7°F7.1°C 31.7°F-0.2°C 60% 2.2 mph ESE3.5 kmh ESE 7.0 mph11.3 kmh 30.02 in1016.6 mb 0.00 in0.0 mm 0.00 in/hr0.0 mm/hr 0.00 in0.0 mm
07:40 PM 44.5°F6.9°C 31.9°F-0.1°C 61% 0.8 mph ENE1.3 kmh ENE 4.0 mph6.4 kmh 30.02 in1016.6 mb 0.00 in0.0 mm 0.00 in/hr0.0 mm/hr 0.00 in0.0 mm
07:50 PM 44.3°F6.8°C 31.7°F-0.2°C 61% 1.7 mph W2.7 kmh W 3.0 mph4.8 kmh 30.02 in1016.6 mb 0.00 in0.0 mm 0.00 in/hr0.0 mm/hr 0.00 in0.0 mm
08:00 PM 44.1°F6.7°C 31.1°F-0.5°C 60% 0.5 mph NW0.8 kmh NW 8.0 mph12.9 kmh 30.02 in1016.6 mb 0.00 in0.0 mm 0.00 in/hr0.0 mm/hr 0.00 in0.0 mm
08:10 PM 44.0°F6.7°C 30.5°F-0.8°C 59% 2.5 mph N4.0 kmh N 5.0 mph8.0 kmh 30.03 in1016.9 mb 0.00 in0.0 mm 0.00 in/hr0.0 mm/hr 0.00 in0.0 mm
08:20 PM 43.9°F6.6°C 30.5°F-0.8°C 59% 3.4 mph NNE5.5 kmh NNE 5.0 mph8.0 kmh 30.03 in1016.9 mb 0.00 in0.0 mm 0.00 in/hr0.0 mm/hr 0.00 in0.0 mm
08:30 PM 43.7°F6.5°C 29.9°F-1.2°C 58% 5.4 mph ESE8.7 kmh ESE 11.0 mph17.7 kmh 30.04 in1017.3 mb 0.00 in0.0 mm 0.00 in/hr0.0 mm/hr 0.00 in0.0 mm
08:40 PM 43.6°F6.4°C 30.2°F-1.0°C 59% 1.7 mph N2.7 kmh N 3.0 mph4.8 kmh 30.04 in1017.3 mb 0.00 in0.0 mm 0.00 in/hr0.0 mm/hr 0.00 in0.0 mm
08:50 PM 43.4°F6.3°C 30.0°F-1.1°C 59% 1.1 mph E1.8 kmh E 3.0 mph4.8 kmh 30.04 in1017.3 mb 0.00 in0.0 mm 0.00 in/hr0.0 mm/hr 0.00 in0.0 mm
09:00 PM 43.2°F6.2°C 29.8°F-1.2°C 59% 3.5 mph WSW5.6 kmh WSW 6.0 mph9.7 kmh 30.04 in1017.3 mb 0.00 in0.0 mm 0.00 in/hr0.0 mm/hr 0.00 in0.0 mm
09:10 PM 43.1°F6.2°C 29.7°F-1.3°C 59% 1.1 mph WSW1.8 kmh WSW 1.0 mph1.6 kmh 30.04 in1017.3 mb 0.00 in0.0 mm 0.00 in/hr0.0 mm/hr 0.00 in0.0 mm
09:20 PM 43.0°F6.1°C 29.6°F-1.3°C 59% 2.5 mph W4.0 kmh W 3.0 mph4.8 kmh 30.05 in1017.6 mb 0.00 in0.0 mm 0.00 in/hr0.0 mm/hr 0.00 in0.0 mm
09:30 PM 42.8°F6.0°C 29.9°F-1.2°C 60% 0.6 mph E1.0 kmh E 1.0 mph1.6 kmh 30.05 in1017.6 mb 0.00 in0.0 mm 0.00 in/hr0.0 mm/hr 0.00 in0.0 mm
09:40 PM 42.5°F5.8°C 30.4°F-0.9°C 62% 1.3 mph NW2.1 kmh NW 1.0 mph1.6 kmh 30.05 in1017.6 mb 0.00 in0.0 mm 0.00 in/hr0.0 mm/hr 0.00 in0.0 mm
09:50 PM 42.5°F5.8°C 29.6°F-1.3°C 60% 1.2 mph E1.9 kmh E 4.0 mph6.4 kmh 30.05 in1017.6 mb 0.00 in0.0 mm 0.00 in/hr0.0 mm/hr 0.00 in0.0 mm
10:00 PM 42.4°F5.8°C 30.3°F-0.9°C 62% 0.4 mph S0.6 kmh S 3.0 mph4.8 kmh 30.05 in1017.6 mb 0.00 in0.0 mm 0.00 in/hr0.0 mm/hr 0.00 in0.0 mm
10:10 PM 42.2°F5.7°C 29.7°F-1.3°C 61% 0.8 mph WSW1.3 kmh WSW 4.0 mph6.4 kmh 30.04 in1017.3 mb 0.00 in0.0 mm 0.00 in/hr0.0 mm/hr 0.00 in0.0 mm
10:20 PM 42.1°F5.6°C 30.4°F-0.9°C 63% 1.3 mph E2.1 kmh E 3.0 mph4.8 kmh 30.05 in1017.6 mb 0.00 in0.0 mm 0.00 in/hr0.0 mm/hr 0.00 in0.0 mm
10:30 PM 42.0°F5.6°C 29.9°F-1.2°C 62% 0.3 mph SW0.5 kmh SW -- 30.05 in1017.6 mb 0.00 in0.0 mm 0.00 in/hr0.0 mm/hr 0.00 in0.0 mm
10:40 PM 41.9°F5.5°C 30.6°F-0.8°C 64% 2.1 mph NW3.4 kmh NW 7.0 mph11.3 kmh 30.05 in1017.6 mb 0.00 in0.0 mm 0.00 in/hr0.0 mm/hr 0.00 in0.0 mm
10:50 PM 41.9°F5.5°C 30.6°F-0.8°C 64% Calm Calm 2.0 mph3.2 kmh 30.05 in1017.6 mb 0.00 in0.0 mm 0.00 in/hr0.0 mm/hr 0.00 in0.0 mm
11:00 PM 41.8°F5.4°C 30.5°F-0.8°C 64% 0.6 mph NE1.0 kmh NE 1.0 mph1.6 kmh 30.05 in1017.6 mb 0.00 in0.0 mm 0.00 in/hr0.0 mm/hr 0.00 in0.0 mm
11:10 PM 41.6°F5.3°C 30.7°F-0.7°C 65% 0.1 mph NW0.2 kmh NW 2.0 mph3.2 kmh 30.05 in1017.6 mb 0.00 in0.0 mm 0.00 in/hr0.0 mm/hr 0.00 in0.0 mm
11:20 PM 41.4°F5.2°C 30.9°F-0.6°C 66% 0.2 mph NE0.3 kmh NE 1.0 mph1.6 kmh 30.05 in1017.6 mb 0.00 in0.0 mm 0.00 in/hr0.0 mm/hr 0.00 in0.0 mm
11:30 PM 41.2°F5.1°C 30.7°F-0.7°C 66% 0.9 mph E1.4 kmh E 1.0 mph1.6 kmh 30.05 in1017.6 mb 0.00 in0.0 mm 0.00 in/hr0.0 mm/hr 0.00 in0.0 mm
11:40 PM 41.2°F5.1°C 31.0°F-0.6°C 67% 0.3 mph E0.5 kmh E 2.0 mph3.2 kmh 30.04 in1017.3 mb 0.00 in0.0 mm 0.00 in/hr0.0 mm/hr 0.00 in0.0 mm
11:50 PM 41.1°F5.1°C 31.0°F-0.6°C 67% 0.3 mph ENE0.5 kmh ENE 2.0 mph3.2 kmh 30.05 in1017.6 mb 0.00 in0.0 mm 0.00 in/hr0.0 mm/hr 0.00 in0.0 mm